sensor_id;sensor_type;location;lat;lon;timestamp;P1;durP1;ratioP1;P2;durP2;ratioP2
42702;SDS011;28341;52.064;4.920;2024-01-30T00:01:41;32.15;;;24.35;;
42702;SDS011;28341;52.064;4.920;2024-01-30T00:03:45;32.97;;;24.23;;
42702;SDS011;28341;52.064;4.920;2024-01-30T00:05:51;33.47;;;23.85;;
42702;SDS011;28341;52.064;4.920;2024-01-30T00:07:55;33.45;;;24.30;;
42702;SDS011;28341;52.064;4.920;2024-01-30T00:10:00;29.65;;;22.45;;
42702;SDS011;28341;52.064;4.920;2024-01-30T00:12:05;32.53;;;22.75;;
42702;SDS011;28341;52.064;4.920;2024-01-30T00:14:10;34.10;;;23.52;;
42702;SDS011;28341;52.064;4.920;2024-01-30T00:16:19;31.45;;;22.77;;
42702;SDS011;28341;52.064;4.920;2024-01-30T00:18:27;27.92;;;22.20;;
42702;SDS011;28341;52.064;4.920;2024-01-30T00:20:31;34.47;;;22.70;;
42702;SDS011;28341;52.064;4.920;2024-01-30T00:22:33;29.23;;;23.73;;
42702;SDS011;28341;52.064;4.920;2024-01-30T00:24:37;28.95;;;22.15;;
42702;SDS011;28341;52.064;4.920;2024-01-30T00:26:39;31.42;;;23.02;;
42702;SDS011;28341;52.064;4.920;2024-01-30T00:28:44;31.75;;;22.40;;
42702;SDS011;28341;52.064;4.920;2024-01-30T00:30:48;32.05;;;24.10;;
42702;SDS011;28341;52.064;4.920;2024-01-30T00:32:53;32.38;;;23.35;;
42702;SDS011;28341;52.064;4.920;2024-01-30T00:35:00;28.92;;;22.30;;
42702;SDS011;28341;52.064;4.920;2024-01-30T00:37:02;28.70;;;20.80;;
42702;SDS011;28341;52.064;4.920;2024-01-30T00:39:06;34.00;;;23.38;;
42702;SDS011;28341;52.064;4.920;2024-01-30T00:41:12;28.55;;;21.27;;
42702;SDS011;28341;52.064;4.920;2024-01-30T00:43:16;30.45;;;22.38;;
42702;SDS011;28341;52.064;4.920;2024-01-30T00:45:21;31.05;;;21.58;;
42702;SDS011;28341;52.064;4.920;2024-01-30T00:47:25;30.20;;;21.33;;
42702;SDS011;28341;52.064;4.920;2024-01-30T00:49:30;26.00;;;21.25;;
42702;SDS011;28341;52.064;4.920;2024-01-30T00:51:37;31.83;;;22.45;;
42702;SDS011;28341;52.064;4.920;2024-01-30T00:53:41;29.30;;;22.02;;
42702;SDS011;28341;52.064;4.920;2024-01-30T00:55:46;31.88;;;22.27;;
42702;SDS011;28341;52.064;4.920;2024-01-30T00:57:50;32.13;;;20.85;;
42702;SDS011;28341;52.064;4.920;2024-01-30T00:59:57;28.00;;;20.98;;
42702;SDS011;28341;52.064;4.920;2024-01-30T01:02:01;27.33;;;20.60;;
42702;SDS011;28341;52.064;4.920;2024-01-30T01:04:05;27.85;;;19.25;;
42702;SDS011;28341;52.064;4.920;2024-01-30T01:06:07;28.67;;;20.23;;
42702;SDS011;28341;52.064;4.920;2024-01-30T01:08:15;27.38;;;20.58;;
42702;SDS011;28341;52.064;4.920;2024-01-30T01:10:19;28.90;;;19.90;;
42702;SDS011;28341;52.064;4.920;2024-01-30T01:12:23;30.13;;;20.25;;
42702;SDS011;28341;52.064;4.920;2024-01-30T01:14:28;28.27;;;20.20;;
42702;SDS011;28341;52.064;4.920;2024-01-30T01:16:32;25.73;;;19.70;;
42702;SDS011;28341;52.064;4.920;2024-01-30T01:18:38;30.05;;;20.50;;
42702;SDS011;28341;52.064;4.920;2024-01-30T01:20:42;24.35;;;19.25;;
42702;SDS011;28341;52.064;4.920;2024-01-30T01:22:46;28.13;;;18.85;;
42702;SDS011;28341;52.064;4.920;2024-01-30T01:24:53;26.70;;;19.77;;
42702;SDS011;28341;52.064;4.920;2024-01-30T01:26:58;26.80;;;18.33;;
42702;SDS011;28341;52.064;4.920;2024-01-30T01:29:02;28.70;;;20.08;;
42702;SDS011;28341;52.064;4.920;2024-01-30T01:31:10;25.38;;;18.70;;
42702;SDS011;28341;52.064;4.920;2024-01-30T01:33:14;26.10;;;19.50;;
42702;SDS011;28341;52.064;4.920;2024-01-30T01:35:19;27.65;;;19.13;;
42702;SDS011;28341;52.064;4.920;2024-01-30T01:37:25;29.50;;;19.08;;
42702;SDS011;28341;52.064;4.920;2024-01-30T01:39:29;29.08;;;20.58;;
42702;SDS011;28341;52.064;4.920;2024-01-30T01:41:36;25.30;;;18.40;;
42702;SDS011;28341;52.064;4.920;2024-01-30T01:43:40;24.50;;;18.98;;
42702;SDS011;28341;52.064;4.920;2024-01-30T01:45:45;26.38;;;19.88;;
42702;SDS011;28341;52.064;4.920;2024-01-30T01:47:50;24.70;;;19.30;;
42702;SDS011;28341;52.064;4.920;2024-01-30T01:49:55;26.40;;;20.00;;
42702;SDS011;28341;52.064;4.920;2024-01-30T01:51:57;25.08;;;18.85;;
42702;SDS011;28341;52.064;4.920;2024-01-30T01:54:03;22.02;;;18.55;;
42702;SDS011;28341;52.064;4.920;2024-01-30T01:56:08;26.15;;;19.45;;
42702;SDS011;28341;52.064;4.920;2024-01-30T01:58:13;28.02;;;19.45;;
42702;SDS011;28341;52.064;4.920;2024-01-30T02:00:17;25.65;;;19.02;;
42702;SDS011;28341;52.064;4.920;2024-01-30T02:02:23;24.48;;;18.40;;
42702;SDS011;28341;52.064;4.920;2024-01-30T02:04:28;28.05;;;18.67;;
42702;SDS011;28341;52.064;4.920;2024-01-30T02:06:32;26.63;;;19.58;;
42702;SDS011;28341;52.064;4.920;2024-01-30T02:08:38;22.45;;;18.45;;
42702;SDS011;28341;52.064;4.920;2024-01-30T02:10:43;23.48;;;18.73;;
42702;SDS011;28341;52.064;4.920;2024-01-30T02:12:48;23.20;;;17.95;;
42702;SDS011;28341;52.064;4.920;2024-01-30T02:14:55;22.70;;;18.17;;
42702;SDS011;28341;52.064;4.920;2024-01-30T02:16:59;26.50;;;19.20;;
42702;SDS011;28341;52.064;4.920;2024-01-30T02:19:04;22.15;;;18.52;;
42702;SDS011;28341;52.064;4.920;2024-01-30T02:21:11;23.55;;;18.40;;
42702;SDS011;28341;52.064;4.920;2024-01-30T02:23:13;28.42;;;18.75;;
42702;SDS011;28341;52.064;4.920;2024-01-30T02:25:19;26.00;;;18.85;;
42702;SDS011;28341;52.064;4.920;2024-01-30T02:27:24;25.50;;;17.75;;
42702;SDS011;28341;52.064;4.920;2024-01-30T02:29:28;20.98;;;16.92;;
42702;SDS011;28341;52.064;4.920;2024-01-30T02:31:30;23.33;;;18.30;;
42702;SDS011;28341;52.064;4.920;2024-01-30T02:33:34;20.60;;;16.90;;
42702;SDS011;28341;52.064;4.920;2024-01-30T02:35:36;22.65;;;16.65;;
42702;SDS011;28341;52.064;4.920;2024-01-30T02:37:43;21.70;;;16.13;;
42702;SDS011;28341;52.064;4.920;2024-01-30T02:39:45;22.50;;;16.25;;
42702;SDS011;28341;52.064;4.920;2024-01-30T02:41:49;20.13;;;16.20;;
42702;SDS011;28341;52.064;4.920;2024-01-30T02:43:54;22.27;;;17.10;;
42702;SDS011;28341;52.064;4.920;2024-01-30T02:45:59;24.63;;;15.98;;
42702;SDS011;28341;52.064;4.920;2024-01-30T02:48:04;20.48;;;16.73;;
42702;SDS011;28341;52.064;4.920;2024-01-30T02:50:07;23.98;;;16.35;;
42702;SDS011;28341;52.064;4.920;2024-01-30T02:52:12;19.35;;;15.82;;
42702;SDS011;28341;52.064;4.920;2024-01-30T02:54:19;21.77;;;17.08;;
42702;SDS011;28341;52.064;4.920;2024-01-30T02:56:23;23.30;;;16.02;;
42702;SDS011;28341;52.064;4.920;2024-01-30T02:58:28;21.27;;;16.80;;
42702;SDS011;28341;52.064;4.920;2024-01-30T03:00:29;23.48;;;16.55;;
42702;SDS011;28341;52.064;4.920;2024-01-30T03:02:34;24.10;;;17.48;;
42702;SDS011;28341;52.064;4.920;2024-01-30T03:04:40;24.77;;;17.30;;
42702;SDS011;28341;52.064;4.920;2024-01-30T03:06:45;20.60;;;16.63;;
42702;SDS011;28341;52.064;4.920;2024-01-30T03:08:50;23.13;;;16.75;;
42702;SDS011;28341;52.064;4.920;2024-01-30T03:10:54;20.48;;;16.45;;
42702;SDS011;28341;52.064;4.920;2024-01-30T03:12:58;21.17;;;16.08;;
42702;SDS011;28341;52.064;4.920;2024-01-30T03:15:03;21.42;;;16.05;;
42702;SDS011;28341;52.064;4.920;2024-01-30T03:17:10;21.83;;;16.33;;
42702;SDS011;28341;52.064;4.920;2024-01-30T03:19:14;19.60;;;16.42;;
42702;SDS011;28341;52.064;4.920;2024-01-30T03:21:16;21.05;;;15.55;;
42702;SDS011;28341;52.064;4.920;2024-01-30T03:23:20;22.38;;;15.50;;
42702;SDS011;28341;52.064;4.920;2024-01-30T03:25:25;22.73;;;16.33;;
42702;SDS011;28341;52.064;4.920;2024-01-30T03:27:29;22.05;;;16.02;;
42702;SDS011;28341;52.064;4.920;2024-01-30T03:29:33;21.75;;;16.08;;
42702;SDS011;28341;52.064;4.920;2024-01-30T03:31:38;28.75;;;16.85;;
42702;SDS011;28341;52.064;4.920;2024-01-30T03:33:43;20.65;;;15.45;;
42702;SDS011;28341;52.064;4.920;2024-01-30T03:35:47;23.73;;;16.73;;
42702;SDS011;28341;52.064;4.920;2024-01-30T03:37:51;22.23;;;16.42;;
42702;SDS011;28341;52.064;4.920;2024-01-30T03:39:56;20.08;;;15.63;;
42702;SDS011;28341;52.064;4.920;2024-01-30T03:41:58;26.30;;;16.50;;
42702;SDS011;28341;52.064;4.920;2024-01-30T03:44:05;21.70;;;15.63;;
42702;SDS011;28341;52.064;4.920;2024-01-30T03:46:11;20.17;;;14.63;;
42702;SDS011;28341;52.064;4.920;2024-01-30T03:48:15;23.83;;;16.60;;
42702;SDS011;28341;52.064;4.920;2024-01-30T03:50:20;24.35;;;15.77;;
42702;SDS011;28341;52.064;4.920;2024-01-30T03:52:24;21.63;;;15.95;;
42702;SDS011;28341;52.064;4.920;2024-01-30T03:54:29;21.33;;;16.45;;
42702;SDS011;28341;52.064;4.920;2024-01-30T03:56:33;22.75;;;16.23;;
42702;SDS011;28341;52.064;4.920;2024-01-30T03:58:37;25.05;;;16.13;;
42702;SDS011;28341;52.064;4.920;2024-01-30T04:00:44;23.45;;;15.77;;
42702;SDS011;28341;52.064;4.920;2024-01-30T04:02:49;24.42;;;16.13;;
42702;SDS011;28341;52.064;4.920;2024-01-30T04:04:54;18.42;;;15.65;;
42702;SDS011;28341;52.064;4.920;2024-01-30T04:06:55;22.95;;;16.40;;
42702;SDS011;28341;52.064;4.920;2024-01-30T04:09:00;22.27;;;15.77;;
42702;SDS011;28341;52.064;4.920;2024-01-30T04:11:04;21.98;;;15.95;;
42702;SDS011;28341;52.064;4.920;2024-01-30T04:13:06;21.73;;;16.17;;
42702;SDS011;28341;52.064;4.920;2024-01-30T04:15:11;22.17;;;16.10;;
42702;SDS011;28341;52.064;4.920;2024-01-30T04:17:19;21.30;;;14.80;;
42702;SDS011;28341;52.064;4.920;2024-01-30T04:19:23;21.17;;;15.68;;
42702;SDS011;28341;52.064;4.920;2024-01-30T04:21:27;26.63;;;16.88;;
42702;SDS011;28341;52.064;4.920;2024-01-30T04:23:32;21.40;;;15.90;;
42702;SDS011;28341;52.064;4.920;2024-01-30T04:25:36;22.55;;;16.13;;
42702;SDS011;28341;52.064;4.920;2024-01-30T04:27:40;23.13;;;15.55;;
42702;SDS011;28341;52.064;4.920;2024-01-30T04:29:42;19.85;;;15.98;;
42702;SDS011;28341;52.064;4.920;2024-01-30T04:31:46;26.08;;;16.98;;
42702;SDS011;28341;52.064;4.920;2024-01-30T04:33:53;17.65;;;15.32;;
42702;SDS011;28341;52.064;4.920;2024-01-30T04:35:58;20.08;;;16.02;;
42702;SDS011;28341;52.064;4.920;2024-01-30T04:38:03;24.38;;;16.08;;
42702;SDS011;28341;52.064;4.920;2024-01-30T04:40:08;20.35;;;16.38;;
42702;SDS011;28341;52.064;4.920;2024-01-30T04:42:11;21.95;;;16.33;;
42702;SDS011;28341;52.064;4.920;2024-01-30T04:44:15;21.00;;;15.50;;
42702;SDS011;28341;52.064;4.920;2024-01-30T04:46:17;24.23;;;16.08;;
42702;SDS011;28341;52.064;4.920;2024-01-30T04:48:21;19.83;;;14.90;;
42702;SDS011;28341;52.064;4.920;2024-01-30T04:50:28;22.90;;;15.85;;
42702;SDS011;28341;52.064;4.920;2024-01-30T04:52:32;19.05;;;14.85;;
42702;SDS011;28341;52.064;4.920;2024-01-30T04:54:36;18.65;;;13.93;;
42702;SDS011;28341;52.064;4.920;2024-01-30T04:56:41;22.38;;;15.85;;
42702;SDS011;28341;52.064;4.920;2024-01-30T04:58:45;21.38;;;15.48;;
42702;SDS011;28341;52.064;4.920;2024-01-30T05:00:49;20.83;;;14.52;;
42702;SDS011;28341;52.064;4.920;2024-01-30T05:02:54;22.23;;;14.93;;
42702;SDS011;28341;52.064;4.920;2024-01-30T05:04:59;24.30;;;15.35;;
42702;SDS011;28341;52.064;4.920;2024-01-30T05:07:06;23.10;;;15.35;;
42702;SDS011;28341;52.064;4.920;2024-01-30T05:09:10;19.48;;;14.90;;
42702;SDS011;28341;52.064;4.920;2024-01-30T05:11:15;20.17;;;14.25;;
42702;SDS011;28341;52.064;4.920;2024-01-30T05:13:22;21.73;;;14.63;;
42702;SDS011;28341;52.064;4.920;2024-01-30T05:15:26;20.35;;;14.90;;
42702;SDS011;28341;52.064;4.920;2024-01-30T05:17:31;22.38;;;14.90;;
42702;SDS011;28341;52.064;4.920;2024-01-30T05:19:35;21.27;;;14.90;;
42702;SDS011;28341;52.064;4.920;2024-01-30T05:21:39;17.02;;;14.10;;
42702;SDS011;28341;52.064;4.920;2024-01-30T05:23:47;22.30;;;15.02;;
42702;SDS011;28341;52.064;4.920;2024-01-30T05:25:49;18.15;;;14.00;;
42702;SDS011;28341;52.064;4.920;2024-01-30T05:27:53;22.27;;;15.13;;
42702;SDS011;28341;52.064;4.920;2024-01-30T05:29:58;17.98;;;14.95;;
42702;SDS011;28341;52.064;4.920;2024-01-30T05:32:00;19.20;;;13.77;;
42702;SDS011;28341;52.064;4.920;2024-01-30T05:34:05;21.60;;;14.82;;
42702;SDS011;28341;52.064;4.920;2024-01-30T05:36:11;21.80;;;13.68;;
42702;SDS011;28341;52.064;4.920;2024-01-30T05:38:13;20.45;;;13.50;;
42702;SDS011;28341;52.064;4.920;2024-01-30T05:40:21;20.38;;;14.98;;
42702;SDS011;28341;52.064;4.920;2024-01-30T05:42:26;23.23;;;13.68;;
42702;SDS011;28341;52.064;4.920;2024-01-30T05:44:31;23.27;;;14.75;;
42702;SDS011;28341;52.064;4.920;2024-01-30T05:46:35;18.65;;;13.98;;
42702;SDS011;28341;52.064;4.920;2024-01-30T05:48:39;20.70;;;14.93;;
42702;SDS011;28341;52.064;4.920;2024-01-30T05:50:41;19.05;;;14.45;;
42702;SDS011;28341;52.064;4.920;2024-01-30T05:52:45;27.35;;;14.45;;
42702;SDS011;28341;52.064;4.920;2024-01-30T05:54:50;19.45;;;14.52;;
42702;SDS011;28341;52.064;4.920;2024-01-30T05:57:00;17.38;;;13.95;;
42702;SDS011;28341;52.064;4.920;2024-01-30T05:59:04;19.73;;;14.98;;
42702;SDS011;28341;52.064;4.920;2024-01-30T06:01:09;20.40;;;14.00;;
42702;SDS011;28341;52.064;4.920;2024-01-30T06:03:10;18.83;;;14.02;;
42702;SDS011;28341;52.064;4.920;2024-01-30T06:05:15;20.92;;;13.82;;
42702;SDS011;28341;52.064;4.920;2024-01-30T06:07:17;20.08;;;15.48;;
42702;SDS011;28341;52.064;4.920;2024-01-30T06:09:22;19.83;;;14.73;;
42702;SDS011;28341;52.064;4.920;2024-01-30T06:11:27;17.35;;;13.50;;
42702;SDS011;28341;52.064;4.920;2024-01-30T06:13:34;17.25;;;13.70;;
42702;SDS011;28341;52.064;4.920;2024-01-30T06:15:38;21.17;;;14.35;;
42702;SDS011;28341;52.064;4.920;2024-01-30T06:17:43;20.02;;;14.43;;
42702;SDS011;28341;52.064;4.920;2024-01-30T06:19:53;26.45;;;18.35;;
42702;SDS011;28341;52.064;4.920;2024-01-30T06:22:00;28.40;;;19.60;;
42702;SDS011;28341;52.064;4.920;2024-01-30T06:24:05;31.60;;;22.10;;
42702;SDS011;28341;52.064;4.920;2024-01-30T06:26:09;23.30;;;18.60;;
42702;SDS011;28341;52.064;4.920;2024-01-30T06:28:14;25.02;;;18.92;;
42702;SDS011;28341;52.064;4.920;2024-01-30T06:30:21;22.08;;;14.63;;
42702;SDS011;28341;52.064;4.920;2024-01-30T06:32:25;17.20;;;14.23;;
42702;SDS011;28341;52.064;4.920;2024-01-30T06:34:34;15.98;;;13.32;;
42702;SDS011;28341;52.064;4.920;2024-01-30T06:36:40;20.27;;;14.27;;
42702;SDS011;28341;52.064;4.920;2024-01-30T06:38:44;25.15;;;14.82;;
42702;SDS011;28341;52.064;4.920;2024-01-30T06:40:49;17.90;;;13.27;;
42702;SDS011;28341;52.064;4.920;2024-01-30T06:42:54;18.40;;;13.85;;
42702;SDS011;28341;52.064;4.920;2024-01-30T06:44:58;20.10;;;14.27;;
42702;SDS011;28341;52.064;4.920;2024-01-30T06:47:02;21.67;;;13.50;;
42702;SDS011;28341;52.064;4.920;2024-01-30T06:49:08;19.52;;;13.45;;
42702;SDS011;28341;52.064;4.920;2024-01-30T06:51:12;19.83;;;14.25;;
42702;SDS011;28341;52.064;4.920;2024-01-30T06:53:14;22.17;;;15.00;;
42702;SDS011;28341;52.064;4.920;2024-01-30T06:55:19;23.08;;;14.50;;
42702;SDS011;28341;52.064;4.920;2024-01-30T06:57:23;23.10;;;14.10;;
42702;SDS011;28341;52.064;4.920;2024-01-30T06:59:28;19.85;;;13.90;;
42702;SDS011;28341;52.064;4.920;2024-01-30T07:01:30;21.80;;;14.63;;
42702;SDS011;28341;52.064;4.920;2024-01-30T07:03:37;22.38;;;14.07;;
42702;SDS011;28341;52.064;4.920;2024-01-30T07:05:42;22.70;;;13.77;;
42702;SDS011;28341;52.064;4.920;2024-01-30T07:07:46;21.35;;;13.77;;
42702;SDS011;28341;52.064;4.920;2024-01-30T07:09:51;19.08;;;14.75;;
42702;SDS011;28341;52.064;4.920;2024-01-30T07:11:56;21.77;;;14.27;;
42702;SDS011;28341;52.064;4.920;2024-01-30T07:14:01;22.33;;;13.93;;
42702;SDS011;28341;52.064;4.920;2024-01-30T07:16:05;22.35;;;14.75;;
42702;SDS011;28341;52.064;4.920;2024-01-30T07:18:10;19.42;;;15.02;;
42702;SDS011;28341;52.064;4.920;2024-01-30T07:20:16;21.50;;;14.20;;
42702;SDS011;28341;52.064;4.920;2024-01-30T07:22:20;23.88;;;15.45;;
42702;SDS011;28341;52.064;4.920;2024-01-30T07:24:25;120.93;;;88.45;;
42702;SDS011;28341;52.064;4.920;2024-01-30T07:26:29;31.73;;;23.23;;
42702;SDS011;28341;52.064;4.920;2024-01-30T07:28:34;23.75;;;15.13;;
42702;SDS011;28341;52.064;4.920;2024-01-30T07:30:38;22.55;;;14.63;;
42702;SDS011;28341;52.064;4.920;2024-01-30T07:32:43;19.73;;;13.55;;
42702;SDS011;28341;52.064;4.920;2024-01-30T07:34:47;21.63;;;14.15;;
42702;SDS011;28341;52.064;4.920;2024-01-30T07:36:54;18.45;;;13.82;;
42702;SDS011;28341;52.064;4.920;2024-01-30T07:38:58;19.45;;;14.10;;
42702;SDS011;28341;52.064;4.920;2024-01-30T07:41:03;21.42;;;13.45;;
42702;SDS011;28341;52.064;4.920;2024-01-30T07:43:08;19.17;;;13.50;;
42702;SDS011;28341;52.064;4.920;2024-01-30T07:45:12;21.77;;;14.45;;
42702;SDS011;28341;52.064;4.920;2024-01-30T07:47:16;19.15;;;13.50;;
42702;SDS011;28341;52.064;4.920;2024-01-30T07:49:18;21.13;;;14.20;;
42702;SDS011;28341;52.064;4.920;2024-01-30T07:51:22;20.30;;;13.80;;
42702;SDS011;28341;52.064;4.920;2024-01-30T07:53:31;18.90;;;13.90;;
42702;SDS011;28341;52.064;4.920;2024-01-30T07:55:35;21.33;;;14.13;;
42702;SDS011;28341;52.064;4.920;2024-01-30T07:57:39;21.75;;;14.02;;
42702;SDS011;28341;52.064;4.920;2024-01-30T07:59:43;19.55;;;14.18;;
42702;SDS011;28341;52.064;4.920;2024-01-30T08:01:47;22.67;;;14.55;;
42702;SDS011;28341;52.064;4.920;2024-01-30T08:03:51;21.55;;;13.88;;
42702;SDS011;28341;52.064;4.920;2024-01-30T08:05:55;24.05;;;14.18;;
42702;SDS011;28341;52.064;4.920;2024-01-30T08:08:00;23.25;;;13.88;;
42702;SDS011;28341;52.064;4.920;2024-01-30T08:10:07;21.95;;;14.00;;
42702;SDS011;28341;52.064;4.920;2024-01-30T08:12:12;21.75;;;14.45;;
42702;SDS011;28341;52.064;4.920;2024-01-30T08:14:17;26.45;;;14.23;;
42702;SDS011;28341;52.064;4.920;2024-01-30T08:16:21;26.08;;;13.80;;
42702;SDS011;28341;52.064;4.920;2024-01-30T08:18:23;19.52;;;13.48;;
42702;SDS011;28341;52.064;4.920;2024-01-30T08:20:27;20.42;;;13.45;;
42702;SDS011;28341;52.064;4.920;2024-01-30T08:22:32;23.27;;;14.23;;
42702;SDS011;28341;52.064;4.920;2024-01-30T08:24:36;20.17;;;12.85;;
42702;SDS011;28341;52.064;4.920;2024-01-30T08:26:43;20.85;;;13.63;;
42702;SDS011;28341;52.064;4.920;2024-01-30T08:28:47;20.15;;;13.88;;
42702;SDS011;28341;52.064;4.920;2024-01-30T08:30:54;17.77;;;12.63;;
42702;SDS011;28341;52.064;4.920;2024-01-30T08:32:58;23.88;;;14.02;;
42702;SDS011;28341;52.064;4.920;2024-01-30T08:35:03;24.00;;;12.85;;
42702;SDS011;28341;52.064;4.920;2024-01-30T08:37:08;19.02;;;13.32;;
42702;SDS011;28341;52.064;4.920;2024-01-30T08:39:16;22.60;;;13.35;;
42702;SDS011;28341;52.064;4.920;2024-01-30T08:41:20;24.40;;;13.50;;
42702;SDS011;28341;52.064;4.920;2024-01-30T08:43:27;23.15;;;13.70;;
42702;SDS011;28341;52.064;4.920;2024-01-30T08:45:32;20.45;;;13.32;;
42702;SDS011;28341;52.064;4.920;2024-01-30T08:47:33;22.58;;;13.20;;
42702;SDS011;28341;52.064;4.920;2024-01-30T08:49:37;19.52;;;13.30;;
42702;SDS011;28341;52.064;4.920;2024-01-30T08:51:39;22.58;;;12.75;;
42702;SDS011;28341;52.064;4.920;2024-01-30T08:53:44;20.10;;;13.35;;
42702;SDS011;28341;52.064;4.920;2024-01-30T08:55:48;18.92;;;12.50;;
42702;SDS011;28341;52.064;4.920;2024-01-30T08:57:52;20.08;;;13.35;;
42702;SDS011;28341;52.064;4.920;2024-01-30T08:59:59;21.13;;;13.07;;
42702;SDS011;28341;52.064;4.920;2024-01-30T09:02:06;18.80;;;13.18;;
42702;SDS011;28341;52.064;4.920;2024-01-30T09:04:13;23.85;;;13.95;;
42702;SDS011;28341;52.064;4.920;2024-01-30T09:06:17;25.58;;;14.18;;
42702;SDS011;28341;52.064;4.920;2024-01-30T09:08:22;25.58;;;13.70;;
42702;SDS011;28341;52.064;4.920;2024-01-30T09:10:26;25.67;;;13.93;;
42702;SDS011;28341;52.064;4.920;2024-01-30T09:12:31;24.08;;;13.27;;
42702;SDS011;28341;52.064;4.920;2024-01-30T09:14:35;23.33;;;14.10;;
42702;SDS011;28341;52.064;4.920;2024-01-30T09:16:42;25.98;;;13.40;;
42702;SDS011;28341;52.064;4.920;2024-01-30T09:18:44;23.08;;;14.18;;
42702;SDS011;28341;52.064;4.920;2024-01-30T09:20:48;23.23;;;13.65;;
42702;SDS011;28341;52.064;4.920;2024-01-30T09:22:53;20.60;;;13.30;;
42702;SDS011;28341;52.064;4.920;2024-01-30T09:24:57;24.65;;;12.85;;
42702;SDS011;28341;52.064;4.920;2024-01-30T09:27:01;20.70;;;13.35;;
42702;SDS011;28341;52.064;4.920;2024-01-30T09:29:08;23.80;;;13.18;;
42702;SDS011;28341;52.064;4.920;2024-01-30T09:31:09;22.85;;;13.90;;
42702;SDS011;28341;52.064;4.920;2024-01-30T09:33:16;21.20;;;12.10;;
42702;SDS011;28341;52.064;4.920;2024-01-30T09:35:21;18.30;;;10.90;;
42702;SDS011;28341;52.064;4.920;2024-01-30T09:37:25;21.55;;;11.88;;
42702;SDS011;28341;52.064;4.920;2024-01-30T09:39:27;17.15;;;11.57;;
42702;SDS011;28341;52.064;4.920;2024-01-30T09:41:31;21.20;;;12.05;;
42702;SDS011;28341;52.064;4.920;2024-01-30T09:43:36;19.13;;;11.95;;
42702;SDS011;28341;52.064;4.920;2024-01-30T09:47:44;15.75;;;11.00;;
42702;SDS011;28341;52.064;4.920;2024-01-30T09:49:52;19.88;;;11.00;;
42702;SDS011;28341;52.064;4.920;2024-01-30T09:51:56;17.95;;;10.98;;
42702;SDS011;28341;52.064;4.920;2024-01-30T09:53:58;18.88;;;11.57;;
42702;SDS011;28341;52.064;4.920;2024-01-30T09:56:03;19.10;;;10.95;;
42702;SDS011;28341;52.064;4.920;2024-01-30T09:58:08;20.45;;;10.70;;
42702;SDS011;28341;52.064;4.920;2024-01-30T10:00:15;19.42;;;10.57;;
42702;SDS011;28341;52.064;4.920;2024-01-30T10:02:20;18.35;;;10.80;;
42702;SDS011;28341;52.064;4.920;2024-01-30T10:04:25;17.52;;;10.43;;
42702;SDS011;28341;52.064;4.920;2024-01-30T10:06:30;20.10;;;10.60;;
42702;SDS011;28341;52.064;4.920;2024-01-30T10:08:34;15.00;;;9.60;;
42702;SDS011;28341;52.064;4.920;2024-01-30T10:10:38;19.20;;;11.20;;
42702;SDS011;28341;52.064;4.920;2024-01-30T10:12:43;21.40;;;10.63;;
42702;SDS011;28341;52.064;4.920;2024-01-30T10:14:49;17.65;;;9.60;;
42702;SDS011;28341;52.064;4.920;2024-01-30T10:16:55;14.75;;;9.70;;
42702;SDS011;28341;52.064;4.920;2024-01-30T10:19:00;15.95;;;10.23;;
42702;SDS011;28341;52.064;4.920;2024-01-30T10:21:05;20.58;;;9.43;;
42702;SDS011;28341;52.064;4.920;2024-01-30T10:23:12;18.73;;;9.50;;
42702;SDS011;28341;52.064;4.920;2024-01-30T10:25:14;18.40;;;9.13;;
42702;SDS011;28341;52.064;4.920;2024-01-30T10:27:23;13.88;;;8.45;;
42702;SDS011;28341;52.064;4.920;2024-01-30T10:29:29;15.02;;;8.68;;
42702;SDS011;28341;52.064;4.920;2024-01-30T10:31:34;15.10;;;8.07;;
42702;SDS011;28341;52.064;4.920;2024-01-30T10:33:42;15.13;;;8.27;;
42702;SDS011;28341;52.064;4.920;2024-01-30T10:36:00;14.68;;;7.07;;
42702;SDS011;28341;52.064;4.920;2024-01-30T10:38:08;14.13;;;8.10;;
42702;SDS011;28341;52.064;4.920;2024-01-30T10:40:17;15.15;;;7.65;;
42702;SDS011;28341;52.064;4.920;2024-01-30T10:42:26;15.50;;;7.10;;
42702;SDS011;28341;52.064;4.920;2024-01-30T10:44:30;11.82;;;6.25;;
42702;SDS011;28341;52.064;4.920;2024-01-30T10:46:43;13.60;;;5.47;;
42702;SDS011;28341;52.064;4.920;2024-01-30T10:48:58;10.75;;;6.22;;
42702;SDS011;28341;52.064;4.920;2024-01-30T10:51:05;19.40;;;5.95;;
42702;SDS011;28341;52.064;4.920;2024-01-30T10:53:15;12.00;;;5.53;;
42702;SDS011;28341;52.064;4.920;2024-01-30T10:55:21;14.70;;;5.35;;
42702;SDS011;28341;52.064;4.920;2024-01-30T10:57:24;20.55;;;6.30;;
42702;SDS011;28341;52.064;4.920;2024-01-30T10:59:29;22.95;;;6.20;;
42702;SDS011;28341;52.064;4.920;2024-01-30T11:01:31;17.00;;;5.17;;
42702;SDS011;28341;52.064;4.920;2024-01-30T11:03:35;11.68;;;3.92;;
42702;SDS011;28341;52.064;4.920;2024-01-30T11:05:40;10.00;;;3.00;;
42702;SDS011;28341;52.064;4.920;2024-01-30T11:07:44;13.77;;;3.20;;
42702;SDS011;28341;52.064;4.920;2024-01-30T11:09:52;9.00;;;2.78;;
42702;SDS011;28341;52.064;4.920;2024-01-30T11:11:57;9.23;;;2.90;;
42702;SDS011;28341;52.064;4.920;2024-01-30T11:14:03;15.55;;;3.13;;
42702;SDS011;28341;52.064;4.920;2024-01-30T11:16:05;11.05;;;3.08;;
42702;SDS011;28341;52.064;4.920;2024-01-30T11:18:10;7.28;;;3.28;;
42702;SDS011;28341;52.064;4.920;2024-01-30T11:20:15;9.25;;;3.90;;
42702;SDS011;28341;52.064;4.920;2024-01-30T11:22:20;11.10;;;4.85;;
42702;SDS011;28341;52.064;4.920;2024-01-30T11:24:24;12.82;;;5.13;;
42702;SDS011;28341;52.064;4.920;2024-01-30T11:26:32;11.93;;;6.38;;
42702;SDS011;28341;52.064;4.920;2024-01-30T11:28:37;11.95;;;6.18;;
42702;SDS011;28341;52.064;4.920;2024-01-30T11:30:42;6.72;;;5.20;;
42702;SDS011;28341;52.064;4.920;2024-01-30T11:32:57;8.48;;;5.50;;
42702;SDS011;28341;52.064;4.920;2024-01-30T11:35:05;8.18;;;4.25;;
42702;SDS011;28341;52.064;4.920;2024-01-30T11:37:11;7.95;;;3.33;;
42702;SDS011;28341;52.064;4.920;2024-01-30T11:39:16;9.88;;;3.15;;
42702;SDS011;28341;52.064;4.920;2024-01-30T11:41:21;13.25;;;2.75;;
42702;SDS011;28341;52.064;4.920;2024-01-30T11:43:29;9.57;;;2.28;;
42702;SDS011;28341;52.064;4.920;2024-01-30T11:45:35;9.55;;;2.10;;
42702;SDS011;28341;52.064;4.920;2024-01-30T11:47:41;9.52;;;2.10;;
42702;SDS011;28341;52.064;4.920;2024-01-30T11:49:43;14.00;;;2.33;;
42702;SDS011;28341;52.064;4.920;2024-01-30T11:51:47;12.75;;;1.95;;
42702;SDS011;28341;52.064;4.920;2024-01-30T11:53:53;11.75;;;2.92;;
42702;SDS011;28341;52.064;4.920;2024-01-30T11:55:57;9.32;;;2.38;;
42702;SDS011;28341;52.064;4.920;2024-01-30T11:58:02;9.02;;;2.72;;
42702;SDS011;28341;52.064;4.920;2024-01-30T12:00:13;12.35;;;1.98;;
42702;SDS011;28341;52.064;4.920;2024-01-30T12:02:19;6.55;;;1.65;;
42702;SDS011;28341;52.064;4.920;2024-01-30T12:04:20;6.35;;;1.73;;
42702;SDS011;28341;52.064;4.920;2024-01-30T12:06:25;8.57;;;1.90;;
42702;SDS011;28341;52.064;4.920;2024-01-30T12:08:29;8.27;;;2.40;;
42702;SDS011;28341;52.064;4.920;2024-01-30T12:10:33;5.60;;;1.70;;
42702;SDS011;28341;52.064;4.920;2024-01-30T12:12:38;6.63;;;2.15;;
42702;SDS011;28341;52.064;4.920;2024-01-30T12:14:41;8.27;;;2.00;;